Time;durP1;ratioP1;P1;durP2;ratioP2;P2;SDS_P1;SDS_P2;PMS_P1;PMS_P2;Temp;Humidity;BMP_temperature;BMP_pressure;BME280_temperature;BME280_humidity;BME280_pressure;Samples;Min_cycle;Max_cycle;Signal;HPM_P1;HPM_P2
2023/12/04 00:02:14;;;;;;;32.13;20.17;;;1.20;90.30;;;;;;6246669;23;20016;-78
2023/12/04 00:04:40;;;;;;;31.37;18.37;;;1.20;90.30;;;;;;6219623;23;20441;-77
2023/12/04 00:07:05;;;;;;;32.03;20.47;;;1.20;90.30;;;;;;6219717;23;20469;-77
2023/12/04 00:09:31;;;;;;;32.57;19.77;;;1.20;90.40;;;;;;6219880;23;20047;-77
2023/12/04 00:11:57;;;;;;;33.20;20.00;;;1.10;90.40;;;;;;6219632;23;20019;-77
2023/12/04 00:14:22;;;;;;;35.27;19.60;;;1.10;90.50;;;;;;6219878;23;20012;-77
2023/12/04 00:16:48;;;;;;;32.23;19.60;;;1.10;90.40;;;;;;6246854;23;20325;-78
2023/12/04 00:19:13;;;;;;;32.03;20.10;;;1.10;90.50;;;;;;6246260;23;20012;-77
2023/12/04 00:21:39;;;;;;;32.43;19.80;;;1.10;90.50;;;;;;6246598;23;20018;-78
2023/12/04 00:24:04;;;;;;;33.97;19.37;;;1.10;90.50;;;;;;6246933;23;20004;-78
2023/12/04 00:26:30;;;;;;;32.73;20.07;;;1.10;90.50;;;;;;6246956;23;20436;-78
2023/12/04 00:28:56;;;;;;;32.33;19.80;;;1.10;90.50;;;;;;6246665;23;20437;-78
2023/12/04 00:31:21;;;;;;;30.07;19.67;;;1.20;90.60;;;;;;6219524;23;20043;-78
2023/12/04 00:33:48;;;;;;;32.63;18.73;;;1.10;90.60;;;;;;6246575;23;20010;-77
2023/12/04 00:36:13;;;;;;;33.50;20.10;;;1.20;90.60;;;;;;6246584;23;20337;-77
2023/12/04 00:38:39;;;;;;;29.57;19.23;;;1.20;90.60;;;;;;6246694;23;20087;-77
2023/12/04 00:41:05;;;;;;;33.27;19.83;;;1.10;90.60;;;;;;6219171;23;20016;-77
2023/12/04 00:43:31;;;;;;;32.37;19.13;;;1.20;90.60;;;;;;6246590;23;20019;-77
2023/12/04 00:45:57;;;;;;;36.13;20.73;;;1.20;90.60;;;;;;6247445;23;20016;-78
2023/12/04 00:48:22;;;;;;;32.03;19.93;;;1.20;90.60;;;;;;6219496;23;20018;-77
2023/12/04 00:50:48;;;;;;;31.57;19.83;;;1.20;90.60;;;;;;6246031;23;20015;-77
2023/12/04 00:53:13;;;;;;;34.20;21.00;;;1.20;90.60;;;;;;6244898;23;20341;-77
2023/12/04 00:55:39;;;;;;;33.40;19.27;;;1.20;90.60;;;;;;6246678;23;20337;-77
2023/12/04 00:58:05;;;;;;;35.37;21.17;;;1.20;90.60;;;;;;6246590;23;20008;-77
2023/12/04 01:00:31;;;;;;;30.50;19.50;;;1.20;90.70;;;;;;6219471;23;20154;-77
2023/12/04 01:02:56;;;;;;;36.10;19.83;;;1.20;90.60;;;;;;6245542;23;20017;-77
2023/12/04 01:05:22;;;;;;;34.83;20.20;;;1.20;90.60;;;;;;6219417;23;20463;-77
2023/12/04 01:07:47;;;;;;;33.97;19.23;;;1.20;90.60;;;;;;6219110;23;20012;-77
2023/12/04 01:10:13;;;;;;;34.67;20.27;;;1.20;90.60;;;;;;6219020;23;20087;-77
2023/12/04 01:12:38;;;;;;;34.90;20.47;;;1.20;90.60;;;;;;6219365;23;20396;-77
2023/12/04 01:15:04;;;;;;;34.33;21.00;;;1.20;90.60;;;;;;6219383;23;20012;-77
2023/12/04 01:17:30;;;;;;;33.43;19.97;;;1.20;90.60;;;;;;6219011;23;20016;-77
2023/12/04 01:19:57;;;;;;;34.30;20.70;;;1.20;90.60;;;;;;6219458;23;20015;-78
2023/12/04 01:22:22;;;;;;;34.77;20.17;;;1.20;90.70;;;;;;6246418;23;20020;-78
2023/12/04 01:24:48;;;;;;;35.20;19.57;;;1.20;90.70;;;;;;6219417;23;20016;-78
2023/12/04 01:27:14;;;;;;;35.00;19.97;;;1.20;90.70;;;;;;6219125;23;20047;-77
2023/12/04 01:29:39;;;;;;;38.07;21.00;;;1.20;90.70;;;;;;6245768;23;20012;-77
2023/12/04 01:32:05;;;;;;;35.17;20.23;;;1.30;90.70;;;;;;6218628;23;20023;-77
2023/12/04 01:34:31;;;;;;;32.77;20.27;;;1.20;90.60;;;;;;6218802;23;20369;-77
2023/12/04 01:36:56;;;;;;;36.37;20.93;;;1.30;90.70;;;;;;6246133;23;20038;-77
2023/12/04 01:39:22;;;;;;;36.43;19.87;;;1.20;90.70;;;;;;6218857;23;20451;-77
2023/12/04 01:41:47;;;;;;;31.50;18.97;;;1.20;90.60;;;;;;6246054;23;20008;-78
2023/12/04 01:44:13;;;;;;;34.73;20.27;;;1.30;90.70;;;;;;6245876;23;20047;-78
2023/12/04 01:46:39;;;;;;;36.30;20.27;;;1.30;90.60;;;;;;6245725;23;20019;-78
2023/12/04 01:49:04;;;;;;;34.00;20.77;;;1.30;90.60;;;;;;6219038;23;20391;-78
2023/12/04 01:51:31;;;;;;;34.23;21.07;;;1.30;90.60;;;;;;6218659;23;20349;-77
2023/12/04 01:53:59;;;;;;;33.43;19.90;;;1.30;90.60;;;;;;6218625;23;20008;-78
2023/12/04 01:56:25;;;;;;;34.77;20.53;;;1.30;90.60;;;;;;6219042;23;20088;-78
2023/12/04 01:58:50;;;;;;;38.30;21.83;;;1.30;90.60;;;;;;6218990;23;20075;-78
2023/12/04 02:01:17;;;;;;;34.90;20.13;;;1.30;90.60;;;;;;6245637;23;20087;-78
2023/12/04 02:03:43;;;;;;;36.27;20.47;;;1.30;90.60;;;;;;6245457;23;20030;-78
2023/12/04 02:06:10;;;;;;;33.63;20.17;;;1.30;90.60;;;;;;6245519;23;20480;-79
2023/12/04 02:08:36;;;;;;;35.10;20.13;;;1.30;90.60;;;;;;6245693;23;20043;-78
2023/12/04 02:11:02;;;;;;;31.90;19.53;;;1.40;90.60;;;;;;6218705;23;20035;-78
2023/12/04 02:13:27;;;;;;;33.10;19.73;;;1.30;90.60;;;;;;6246036;23;20040;-78
2023/12/04 02:15:54;;;;;;;34.63;20.20;;;1.30;90.60;;;;;;6193396;23;20131;-78
2023/12/04 02:18:22;;;;;;;31.47;19.63;;;1.30;90.60;;;;;;6245936;23;20015;-78
2023/12/04 02:20:47;;;;;;;37.23;21.13;;;1.40;90.50;;;;;;6245892;23;20016;-78
2023/12/04 02:23:13;;;;;;;32.53;19.67;;;1.40;90.50;;;;;;6245007;23;20024;-78
2023/12/04 02:25:39;;;;;;;34.03;19.53;;;1.40;90.50;;;;;;6218336;23;20340;-78
2023/12/04 02:28:11;;;;;;;32.43;18.67;;;1.40;90.50;;;;;;6218628;23;20012;-78
2023/12/04 02:30:37;;;;;;;34.93;20.33;;;1.40;90.50;;;;;;6218244;23;20066;-78
2023/12/04 02:33:05;;;;;;;34.27;19.70;;;1.40;90.40;;;;;;6245410;23;20150;-78
2023/12/04 02:35:33;;;;;;;32.77;20.53;;;1.40;90.40;;;;;;6245301;23;20038;-78
2023/12/04 02:38:01;;;;;;;32.97;19.30;;;1.40;90.40;;;;;;6218399;23;20016;-79
2023/12/04 02:40:27;;;;;;;31.30;19.20;;;1.40;90.40;;;;;;6218269;23;20016;-78
2023/12/04 02:42:53;;;;;;;33.83;20.13;;;1.40;90.30;;;;;;6245777;23;20070;-78
2023/12/04 02:45:18;;;;;;;32.17;19.07;;;1.40;90.30;;;;;;6218318;23;20387;-78
2023/12/04 02:47:44;;;;;;;33.30;18.73;;;1.40;90.30;;;;;;6218406;23;20012;-78
2023/12/04 02:50:10;;;;;;;31.63;19.13;;;1.40;90.30;;;;;;6218226;23;20019;-78
2023/12/04 02:52:35;;;;;;;29.87;18.57;;;1.40;90.30;;;;;;6217938;23;20008;-78
2023/12/04 02:55:01;;;;;;;32.40;18.50;;;1.40;90.30;;;;;;6245497;23;20506;-78
2023/12/04 02:57:27;;;;;;;31.97;18.37;;;1.40;90.30;;;;;;6245628;23;20083;-78
2023/12/04 02:59:53;;;;;;;30.33;18.23;;;1.40;90.30;;;;;;6245513;23;20015;-78
2023/12/04 03:02:18;;;;;;;32.17;19.67;;;1.40;90.30;;;;;;6218309;23;20016;-78
2023/12/04 03:04:45;;;;;;;30.93;17.43;;;1.40;90.30;;;;;;6218115;23;20142;-78
2023/12/04 03:07:11;;;;;;;30.00;17.93;;;1.40;90.30;;;;;;6245123;23;20012;-78
2023/12/04 03:09:36;;;;;;;29.97;16.43;;;1.40;90.30;;;;;;6245621;23;20004;-78
2023/12/04 03:12:02;;;;;;;29.17;17.17;;;1.40;90.30;;;;;;6246897;23;20019;-78
2023/12/04 03:14:27;;;;;;;28.13;17.10;;;1.40;90.30;;;;;;6220208;23;20047;-78
2023/12/04 03:16:53;;;;;;;29.87;17.00;;;1.40;90.20;;;;;;6247612;23;20004;-78
2023/12/04 03:19:19;;;;;;;28.67;16.67;;;1.40;90.20;;;;;;6220259;23;20337;-79
2023/12/04 03:21:44;;;;;;;30.53;16.90;;;1.40;90.20;;;;;;6247324;23;20039;-79
2023/12/04 03:24:10;;;;;;;31.10;17.47;;;1.40;90.20;;;;;;6247256;23;20012;-79
2023/12/04 03:26:35;;;;;;;30.00;16.07;;;1.50;90.20;;;;;;6247227;23;20012;-78
2023/12/04 03:29:01;;;;;;;28.70;16.83;;;1.40;90.20;;;;;;6247161;23;20034;-78
2023/12/04 03:31:28;;;;;;;31.43;17.57;;;1.50;90.20;;;;;;6220085;23;20455;-78
2023/12/04 03:33:53;;;;;;;28.57;16.93;;;1.50;90.10;;;;;;6247165;23;20004;-78
2023/12/04 03:36:19;;;;;;;28.87;15.93;;;1.50;90.10;;;;;;6248090;23;20033;-78
2023/12/04 03:38:44;;;;;;;28.17;16.83;;;1.50;90.10;;;;;;6247994;23;20564;-78
2023/12/04 03:41:16;;;;;;;26.80;15.77;;;1.50;90.00;;;;;;6246752;23;20097;-78
2023/12/04 03:43:42;;;;;;;26.63;16.10;;;1.50;90.00;;;;;;6219931;23;20083;-78
2023/12/04 03:46:08;;;;;;;26.93;15.83;;;1.50;90.00;;;;;;6247386;23;20464;-78
2023/12/04 03:48:33;;;;;;;28.00;16.83;;;1.50;90.00;;;;;;6246747;23;20016;-78
2023/12/04 03:50:59;;;;;;;29.87;16.13;;;1.50;90.00;;;;;;6246895;23;20044;-78
2023/12/04 03:53:26;;;;;;;30.07;16.67;;;1.50;90.00;;;;;;6247341;23;20050;-78
2023/12/04 03:55:51;;;;;;;28.43;16.53;;;1.50;90.00;;;;;;6246824;23;20004;-78
2023/12/04 03:58:17;;;;;;;30.80;16.37;;;1.50;90.00;;;;;;6246787;23;20083;-78
2023/12/04 04:00:43;;;;;;;26.47;15.67;;;1.50;89.80;;;;;;6247070;23;20445;-78
2023/12/04 04:03:09;;;;;;;25.87;15.40;;;1.50;89.80;;;;;;6220099;23;20020;-78
2023/12/04 04:05:35;;;;;;;28.23;17.03;;;1.50;89.80;;;;;;6220113;23;20468;-78
2023/12/04 04:08:01;;;;;;;26.97;15.30;;;1.50;89.70;;;;;;6219656;23;20012;-78
2023/12/04 04:10:27;;;;;;;27.13;16.33;;;1.50;89.70;;;;;;6246598;23;20004;-78
2023/12/04 04:12:53;;;;;;;25.43;15.10;;;1.50;89.70;;;;;;6246580;23;20441;-78
2023/12/04 04:15:18;;;;;;;29.37;16.00;;;1.50;89.60;;;;;;6219966;23;20020;-78
2023/12/04 04:17:44;;;;;;;25.40;14.90;;;1.50;89.60;;;;;;6219742;23;20087;-78
2023/12/04 04:20:11;;;;;;;25.00;14.97;;;1.50;89.50;;;;;;6246353;23;20028;-78
2023/12/04 04:22:38;;;;;;;26.97;16.10;;;1.50;89.50;;;;;;6246412;23;20027;-79
2023/12/04 04:25:07;;;;;;;25.70;15.00;;;1.50;89.50;;;;;;6219036;23;20445;-78
2023/12/04 04:27:33;;;;;;;25.10;14.87;;;1.50;89.50;;;;;;6244866;23;20062;-78
2023/12/04 04:29:59;;;;;;;26.53;14.57;;;1.50;89.50;;;;;;6219940;23;20020;-78
2023/12/04 04:32:25;;;;;;;25.67;15.03;;;1.50;89.40;;;;;;6219684;23;20445;-78
2023/12/04 04:34:50;;;;;;;28.73;16.00;;;1.50;89.40;;;;;;6219158;23;20012;-78
2023/12/04 04:37:16;;;;;;;25.40;14.50;;;1.50;89.40;;;;;;6246242;23;20012;-78
2023/12/04 04:39:41;;;;;;;23.90;14.43;;;1.50;89.40;;;;;;6219864;23;20429;-78
2023/12/04 04:42:07;;;;;;;27.40;14.80;;;1.50;89.40;;;;;;6246435;23;20015;-79
2023/12/04 04:44:33;;;;;;;22.90;14.57;;;1.50;89.30;;;;;;6246450;23;20008;-78
2023/12/04 04:46:58;;;;;;;25.07;15.13;;;1.50;89.30;;;;;;6246751;23;20015;-78
2023/12/04 04:49:24;;;;;;;23.30;14.40;;;1.50;89.20;;;;;;6246342;23;20075;-78
2023/12/04 04:51:49;;;;;;;24.03;14.77;;;1.60;89.10;;;;;;6246223;23;20009;-78
2023/12/04 04:54:15;;;;;;;28.33;15.07;;;1.60;89.10;;;;;;6219562;23;20511;-78
2023/12/04 04:56:40;;;;;;;22.47;13.83;;;1.60;89.10;;;;;;6246303;23;20083;-79
2023/12/04 04:59:06;;;;;;;24.63;14.20;;;1.60;89.00;;;;;;6219246;23;20336;-78
2023/12/04 05:01:32;;;;;;;25.70;15.33;;;1.60;88.90;;;;;;6219709;23;20020;-78
2023/12/04 05:03:57;;;;;;;28.33;15.40;;;1.60;88.90;;;;;;6246175;23;20012;-78
2023/12/04 05:06:23;;;;;;;24.20;14.53;;;1.50;88.70;;;;;;6246140;23;20341;-78
2023/12/04 05:08:52;;;;;;;24.07;14.03;;;1.60;88.80;;;;;;6219044;23;20008;-78
2023/12/04 05:11:18;;;;;;;24.83;14.13;;;1.60;88.70;;;;;;6219188;23;20345;-78
2023/12/04 05:13:44;;;;;;;23.90;13.80;;;1.60;88.60;;;;;;6219357;23;20008;-78
2023/12/04 05:16:10;;;;;;;24.50;14.20;;;1.60;88.60;;;;;;6245827;23;20337;-78
2023/12/04 05:18:36;;;;;;;26.07;14.30;;;1.60;88.50;;;;;;6245923;23;20004;-78
2023/12/04 05:21:02;;;;;;;23.17;14.10;;;1.60;88.50;;;;;;6246330;23;20012;-78
2023/12/04 05:23:28;;;;;;;22.57;13.30;;;1.60;88.50;;;;;;6245698;23;20039;-78
2023/12/04 05:25:53;;;;;;;23.03;13.70;;;1.60;88.50;;;;;;6219137;23;20016;-79
2023/12/04 05:28:19;;;;;;;24.10;14.50;;;1.60;88.50;;;;;;6219001;23;20065;-79
2023/12/04 05:30:45;;;;;;;21.33;13.23;;;1.60;88.40;;;;;;6218721;23;20016;-78
2023/12/04 05:33:10;;;;;;;23.30;14.17;;;1.60;88.30;;;;;;6244766;23;20012;-78
2023/12/04 05:35:37;;;;;;;22.63;13.90;;;1.60;88.40;;;;;;6247883;23;20087;-78
2023/12/04 05:38:02;;;;;;;25.60;13.80;;;1.60;88.30;;;;;;6221699;23;20393;-78
2023/12/04 05:40:28;;;;;;;19.23;12.97;;;1.60;88.10;;;;;;6245841;23;20020;-78
2023/12/04 05:42:53;;;;;;;23.07;13.07;;;1.60;88.00;;;;;;6218990;23;20050;-78
2023/12/04 05:45:19;;;;;;;21.87;13.20;;;1.60;87.90;;;;;;6246032;23;20016;-78
2023/12/04 05:47:44;;;;;;;22.57;12.93;;;1.60;87.90;;;;;;6246416;23;20336;-78
2023/12/04 05:50:10;;;;;;;20.83;12.60;;;1.60;87.90;;;;;;6245894;23;20062;-78
2023/12/04 05:52:35;;;;;;;20.97;12.73;;;1.60;87.80;;;;;;6246963;23;20024;-79
2023/12/04 05:55:02;;;;;;;22.47;13.43;;;1.60;87.80;;;;;;6248418;23;20015;-79
2023/12/04 05:57:27;;;;;;;22.30;13.50;;;1.60;87.60;;;;;;6219765;23;20016;-79
2023/12/04 05:59:53;;;;;;;23.87;14.13;;;1.60;87.60;;;;;;6245679;23;20011;-79
2023/12/04 06:02:19;;;;;;;21.43;13.07;;;1.60;87.50;;;;;;6245810;23;20020;-78
2023/12/04 06:04:44;;;;;;;20.37;12.70;;;1.60;87.50;;;;;;6218684;23;20019;-78
2023/12/04 06:07:10;;;;;;;22.67;13.07;;;1.60;87.40;;;;;;6218673;23;20725;-78
2023/12/04 06:09:36;;;;;;;20.63;12.47;;;1.70;87.40;;;;;;6219539;23;20020;-79
2023/12/04 06:12:07;;;;;;;22.27;13.30;;;1.60;87.20;;;;;;6217864;23;20024;-79
2023/12/04 06:14:33;;;;;;;20.57;13.07;;;1.60;87.20;;;;;;6219568;23;20089;-78
2023/12/04 06:16:59;;;;;;;19.20;12.10;;;1.60;87.10;;;;;;6219034;23;20015;-79
2023/12/04 06:19:25;;;;;;;20.30;12.10;;;1.60;87.10;;;;;;6219566;23;20020;-79
2023/12/04 06:21:52;;;;;;;20.03;13.10;;;1.60;87.00;;;;;;6218982;23;20449;-78
2023/12/04 06:24:18;;;;;;;19.10;12.20;;;1.60;87.00;;;;;;6219136;23;20445;-78
2023/12/04 06:26:47;;;;;;;20.30;13.00;;;1.60;86.90;;;;;;6219365;23;20023;-78
2023/12/04 06:29:12;;;;;;;21.17;13.10;;;1.60;86.90;;;;;;6246457;23;20016;-78
2023/12/04 06:31:38;;;;;;;19.97;11.67;;;1.60;86.80;;;;;;6219997;23;20016;-78
2023/12/04 06:34:04;;;;;;;21.67;12.67;;;1.60;86.70;;;;;;6246403;23;20361;-78
2023/12/04 06:36:35;;;;;;;21.23;12.83;;;1.60;86.60;;;;;;6246677;23;20068;-78
2023/12/04 06:39:04;;;;;;;20.63;12.30;;;1.60;86.70;;;;;;6247584;23;20012;-78
2023/12/04 06:41:29;;;;;;;19.27;12.20;;;1.60;86.60;;;;;;6247166;23;20012;-79
2023/12/04 06:43:55;;;;;;;16.90;10.83;;;1.60;86.60;;;;;;6249770;23;20023;-80
2023/12/04 06:46:23;;;;;;;18.43;11.53;;;1.60;86.50;;;;;;6251596;23;20016;-80
2023/12/04 06:48:54;;;;;;;18.07;10.93;;;1.60;86.40;;;;;;6250544;23;20012;-80
2023/12/04 06:51:20;;;;;;;18.67;11.50;;;1.60;86.40;;;;;;6224448;23;20020;-79
2023/12/04 06:53:45;;;;;;;17.80;10.60;;;1.50;86.30;;;;;;6224399;23;20023;-79
2023/12/04 06:56:11;;;;;;;18.67;11.17;;;1.60;86.30;;;;;;6225540;23;20012;-79
2023/12/04 06:58:36;;;;;;;19.27;10.87;;;1.60;86.20;;;;;;6250786;23;20008;-80
2023/12/04 07:01:02;;;;;;;20.43;11.60;;;1.60;86.20;;;;;;6249090;23;20016;-79
2023/12/04 07:03:27;;;;;;;21.80;11.63;;;1.60;86.50;;;;;;6221941;23;20437;-79
2023/12/04 07:05:53;;;;;;;17.27;10.70;;;1.60;86.00;;;;;;6248862;23;20012;-79
2023/12/04 07:08:19;;;;;;;18.03;10.67;;;1.60;86.00;;;;;;6249568;23;20023;-79
2023/12/04 07:10:44;;;;;;;16.73;10.97;;;1.60;85.90;;;;;;6197904;23;20017;-79
2023/12/04 07:13:12;;;;;;;17.83;11.20;;;1.60;85.80;;;;;;6222322;23;20008;-79
2023/12/04 07:15:38;;;;;;;16.47;10.50;;;1.60;85.60;;;;;;6223962;23;20012;-79
2023/12/04 07:18:03;;;;;;;17.73;10.27;;;1.80;85.60;;;;;;6224048;23;20015;-79
2023/12/04 07:20:29;;;;;;;19.23;11.47;;;1.50;85.20;;;;;;6222940;23;20012;-79
2023/12/04 07:22:57;;;;;;;15.93;11.03;;;1.60;85.30;;;;;;6222785;23;20035;-79
2023/12/04 07:25:23;;;;;;;21.30;11.97;;;1.60;85.20;;;;;;6223362;23;20015;-80
2023/12/04 07:27:49;;;;;;;14.83;10.57;;;1.60;85.20;;;;;;6224047;23;20020;-80
2023/12/04 07:30:15;;;;;;;15.37;10.23;;;1.60;85.20;;;;;;6223907;23;20013;-79
2023/12/04 07:32:40;;;;;;;16.07;10.43;;;1.60;85.00;;;;;;6222951;23;20023;-79
2023/12/04 07:35:07;;;;;;;18.63;10.73;;;1.60;85.00;;;;;;6249644;23;20394;-79
2023/12/04 07:37:32;;;;;;;15.87;10.20;;;1.60;84.90;;;;;;6223564;23;20549;-79
2023/12/04 07:39:58;;;;;;;14.17;9.33;;;1.60;84.80;;;;;;6224035;23;20015;-79
2023/12/04 07:42:23;;;;;;;15.77;9.83;;;1.60;84.70;;;;;;6224464;23;20023;-79
2023/12/04 07:44:49;;;;;;;17.17;9.63;;;1.60;84.70;;;;;;6251610;23;20347;-79
2023/12/04 07:47:15;;;;;;;14.87;9.33;;;1.60;84.50;;;;;;6251612;23;20012;-80
2023/12/04 07:49:41;;;;;;;14.63;9.20;;;1.60;84.40;;;;;;6223982;23;20058;-79
2023/12/04 07:52:08;;;;;;;13.60;9.20;;;1.60;84.10;;;;;;6252270;23;20013;-79
2023/12/04 07:54:34;;;;;;;15.23;9.93;;;1.60;84.00;;;;;;6253436;23;20008;-80
2023/12/04 07:56:59;;;;;;;13.17;8.53;;;1.60;83.90;;;;;;6254176;23;20019;-80
2023/12/04 07:59:25;;;;;;;15.40;8.60;;;1.70;83.80;;;;;;6258363;23;20460;-80
2023/12/04 08:01:51;;;;;;;16.23;10.40;;;1.70;83.70;;;;;;6254590;23;20403;-80
2023/12/04 08:04:17;;;;;;;14.30;9.30;;;1.70;83.60;;;;;;6256368;23;20008;-80
2023/12/04 08:06:42;;;;;;;13.27;8.27;;;1.70;83.40;;;;;;6228420;23;20026;-80
2023/12/04 08:09:10;;;;;;;13.00;8.40;;;1.70;83.20;;;;;;6254075;23;20004;-80
2023/12/04 08:11:36;;;;;;;13.37;9.77;;;1.70;83.10;;;;;;6255060;23;20012;-80
2023/12/04 08:14:03;;;;;;;12.90;8.43;;;1.70;82.70;;;;;;6255812;23;20079;-80
2023/12/04 08:16:29;;;;;;;13.47;8.47;;;1.70;82.40;;;;;;6253042;23;20008;-80
2023/12/04 08:18:55;;;;;;;15.07;8.20;;;1.70;82.40;;;;;;6251202;23;20018;-80
2023/12/04 08:21:21;;;;;;;11.00;7.70;;;1.80;82.30;;;;;;6250210;23;20023;-80
2023/12/04 08:23:46;;;;;;;14.70;8.97;;;1.70;82.00;;;;;;6223559;23;20024;-80
2023/12/04 08:26:12;;;;;;;12.13;7.30;;;1.80;81.80;;;;;;6223314;23;20020;-80
2023/12/04 08:28:41;;;;;;;12.60;8.37;;;1.80;81.70;;;;;;6223567;23;20445;-79
2023/12/04 08:31:10;;;;;;;11.10;7.43;;;1.80;81.70;;;;;;6221855;23;20028;-79
2023/12/04 08:33:36;;;;;;;11.27;7.23;;;1.80;81.40;;;;;;6223338;23;20066;-79
2023/12/04 08:36:02;;;;;;;12.03;8.27;;;1.80;81.30;;;;;;6223199;23;20150;-79
2023/12/04 08:38:27;;;;;;;12.33;7.23;;;1.80;81.20;;;;;;6223511;23;20016;-79
2023/12/04 08:40:53;;;;;;;11.90;7.83;;;1.80;80.90;;;;;;6224114;23;20016;-79
2023/12/04 08:43:19;;;;;;;13.37;7.67;;;1.80;81.10;;;;;;6252260;23;20016;-79
2023/12/04 08:45:47;;;;;;;10.87;7.13;;;1.80;80.30;;;;;;6252405;23;20012;-79
2023/12/04 08:48:13;;;;;;;10.77;6.23;;;1.80;80.10;;;;;;6227640;23;20016;-80
2023/12/04 08:50:38;;;;;;;11.50;7.23;;;1.80;79.90;;;;;;6226355;23;20020;-79
2023/12/04 08:53:04;;;;;;;12.97;7.33;;;1.90;79.80;;;;;;6254112;23;20016;-79
2023/12/04 08:55:30;;;;;;;11.67;7.00;;;1.80;79.40;;;;;;6251270;23;20461;-79
2023/12/04 08:57:56;;;;;;;9.33;6.47;;;1.80;79.30;;;;;;6256974;23;20012;-79
2023/12/04 09:00:21;;;;;;;11.03;6.60;;;1.90;79.30;;;;;;6197470;23;20061;-78
2023/12/04 09:02:48;;;;;;;9.17;6.87;;;1.90;79.20;;;;;;6219698;23;20016;-78
2023/12/04 09:05:14;;;;;;;11.20;6.43;;;1.90;78.80;;;;;;6220368;23;20083;-78
2023/12/04 09:07:39;;;;;;;11.07;6.67;;;1.90;78.30;;;;;;6220792;23;20023;-79
2023/12/04 09:10:06;;;;;;;9.83;6.07;;;2.00;77.60;;;;;;6220001;23;20345;-79
2023/12/04 09:12:31;;;;;;;11.37;6.77;;;2.00;77.70;;;;;;6220128;23;20012;-79
2023/12/04 09:14:57;;;;;;;10.50;6.50;;;2.00;77.50;;;;;;6247265;23;20024;-79
2023/12/04 09:17:23;;;;;;;9.20;6.17;;;2.00;77.30;;;;;;6244774;23;20008;-79
2023/12/04 09:19:48;;;;;;;9.43;6.40;;;2.10;77.20;;;;;;6219100;23;20050;-76
2023/12/04 09:22:14;;;;;;;10.87;6.70;;;2.10;77.00;;;;;;6214194;23;20075;-76
2023/12/04 09:24:41;;;;;;;9.77;6.40;;;2.10;76.70;;;;;;6215219;23;20450;-78
2023/12/04 09:27:06;;;;;;;9.40;6.50;;;2.10;76.40;;;;;;6216057;23;20047;-78
2023/12/04 09:29:33;;;;;;;8.13;5.73;;;2.10;76.50;;;;;;6241520;23;20019;-78
2023/12/04 09:31:59;;;;;;;8.17;5.57;;;2.20;76.00;;;;;;6189935;23;20013;-78
2023/12/04 09:34:25;;;;;;;9.53;5.87;;;2.20;75.90;;;;;;6215224;23;20560;-78
2023/12/04 09:36:50;;;;;;;9.43;6.40;;;2.20;76.00;;;;;;6215301;23;20017;-78
2023/12/04 09:39:16;;;;;;;11.43;6.70;;;2.30;76.10;;;;;;6215112;23;20037;-78
2023/12/04 09:41:43;;;;;;;9.87;5.90;;;2.30;75.90;;;;;;6214763;23;20020;-78
2023/12/04 09:44:09;;;;;;;9.07;6.40;;;2.30;75.90;;;;;;6214641;23;20015;-78
2023/12/04 09:46:35;;;;;;;9.40;6.00;;;2.30;75.90;;;;;;6189733;23;20059;-78
2023/12/04 09:49:02;;;;;;;8.93;6.00;;;2.30;75.60;;;;;;6215109;23;20449;-78
2023/12/04 09:51:28;;;;;;;9.63;6.40;;;2.40;75.60;;;;;;6215637;23;20013;-78
2023/12/04 09:53:55;;;;;;;10.13;6.73;;;2.40;75.50;;;;;;6216102;23;20020;-78
2023/12/04 09:56:22;;;;;;;11.23;6.53;;;2.50;75.30;;;;;;6215713;23;20468;-79
2023/12/04 09:58:52;;;;;;;10.33;6.23;;;2.50;75.10;;;;;;6214499;23;20092;-77
2023/12/04 10:01:18;;;;;;;10.00;6.23;;;2.50;75.10;;;;;;6214842;23;20027;-77
2023/12/04 10:03:45;;;;;;;8.97;6.27;;;2.50;75.20;;;;;;6213916;23;20507;-77
2023/12/04 10:06:16;;;;;;;9.40;6.43;;;2.50;74.90;;;;;;6188797;23;21227;-77
2023/12/04 10:08:44;;;;;;;9.47;6.33;;;2.50;74.60;;;;;;6213913;23;20013;-77
2023/12/04 10:11:10;;;;;;;9.10;6.33;;;2.50;74.70;;;;;;6213846;23;20457;-77
2023/12/04 10:13:36;;;;;;;9.60;5.80;;;2.60;74.80;;;;;;6213683;23;20012;-77
2023/12/04 10:16:02;;;;;;;8.87;5.90;;;2.60;74.50;;;;;;6188659;23;20013;-77
2023/12/04 10:18:31;;;;;;;9.53;6.50;;;2.60;74.40;;;;;;6214233;23;20024;-77
2023/12/04 10:20:58;;;;;;;9.47;6.30;;;2.60;74.40;;;;;;6214406;23;20318;-77
2023/12/04 10:23:41;;;;;;;10.23;6.10;;;2.60;74.10;;;;;;6238485;23;20027;-77
2023/12/04 10:26:07;;;;;;;8.70;5.43;;;2.60;74.00;;;;;;6218304;23;20012;-77
2023/12/04 10:28:33;;;;;;;8.33;6.10;;;2.60;74.30;;;;;;6243851;23;20054;-77
2023/12/04 10:30:59;;;;;;;10.07;6.17;;;2.60;74.10;;;;;;6245680;23;20009;-77
2023/12/04 10:33:28;;;;;;;9.80;6.20;;;2.70;73.90;;;;;;6246793;23;20406;-77
2023/12/04 10:35:55;;;;;;;9.77;6.32;;;2.70;73.90;;;;;;6245556;23;20044;-77
2023/12/04 10:38:21;;;;;;;8.57;5.87;;;2.70;73.70;;;;;;6245192;23;20016;-77
2023/12/04 10:40:47;;;;;;;9.60;6.63;;;2.70;73.60;;;;;;6245658;23;20012;-77
2023/12/04 10:43:16;;;;;;;10.82;6.15;;;2.70;73.60;;;;;;6218245;23;20020;-77
2023/12/04 10:45:43;;;;;;;10.63;6.80;;;2.70;73.50;;;;;;6218615;23;20318;-77
2023/12/04 10:48:10;;;;;;;11.73;6.97;;;2.70;73.50;;;;;;6245638;23;20012;-77
2023/12/04 10:50:38;;;;;;;9.10;5.97;;;2.70;73.30;;;;;;6245740;23;20016;-77
2023/12/04 10:53:07;;;;;;;10.03;6.43;;;2.80;73.40;;;;;;6218514;23;20389;-77
2023/12/04 10:55:33;;;;;;;8.43;5.63;;;2.80;73.30;;;;;;6243864;23;20016;-78
2023/12/04 10:58:05;;;;;;;9.03;6.53;;;2.80;73.20;;;;;;6245431;23;20035;-78
2023/12/04 11:00:34;;;;;;;9.02;5.68;;;2.80;72.80;;;;;;6245479;23;20012;-78
2023/12/04 11:03:12;;;;;;;9.77;6.20;;;2.80;72.70;;;;;;6245498;23;20008;-78
2023/12/04 11:05:40;;;;;;;9.00;5.80;;;2.80;72.60;;;;;;6243811;23;20162;-78
2023/12/04 11:08:11;;;;;;;9.97;6.67;;;2.80;72.60;;;;;;6245512;23;20070;-78
2023/12/04 11:11:03;;;;;;;8.50;5.70;;;2.80;72.30;;;;;;6245089;23;20022;-78
2023/12/04 11:13:32;;;;;;;8.73;5.87;;;2.80;72.00;;;;;;6237558;23;20091;-78
2023/12/04 11:16:21;;;;;;;9.03;5.80;;;2.80;71.90;;;;;;6245278;23;20008;-78
2023/12/04 11:18:54;;;;;;;9.40;5.50;;;2.80;72.10;;;;;;6244494;23;20357;-78
2023/12/04 11:21:21;;;;;;;8.23;5.20;;;2.80;72.20;;;;;;6245096;23;20048;-77
2023/12/04 11:23:47;;;;;;;9.77;6.00;;;2.90;72.40;;;;;;6245165;23;20020;-78
2023/12/04 11:26:14;;;;;;;9.57;6.57;;;2.80;72.10;;;;;;6219466;23;20016;-77
2023/12/04 11:28:41;;;;;;;8.67;5.93;;;2.90;72.20;;;;;;6245254;23;20432;-77
2023/12/04 11:31:07;;;;;;;11.93;6.10;;;2.90;71.90;;;;;;6245350;23;20012;-77
2023/12/04 11:33:37;;;;;;;10.33;6.27;;;2.90;72.20;;;;;;6218210;23;20086;-77
2023/12/04 11:36:11;;;;;;;10.43;5.93;;;2.90;72.30;;;;;;6220595;23;20023;-78
2023/12/04 11:38:37;;;;;;;8.77;6.00;;;2.90;72.10;;;;;;6247708;23;20014;-78
2023/12/04 11:41:20;;;;;;;8.40;5.70;;;2.90;72.20;;;;;;6220132;23;20444;-78
2023/12/04 11:43:49;;;;;;;9.68;6.22;;;3.00;72.30;;;;;;6248335;23;20047;-78
2023/12/04 11:46:23;;;;;;;8.02;5.75;;;3.00;72.30;;;;;;6247756;23;20012;-78
2023/12/04 11:49:28;;;;;;;10.32;6.22;;;3.00;72.00;;;;;;6247089;23;20079;-78
2023/12/04 11:51:54;;;;;;;9.37;6.57;;;3.10;71.70;;;;;;6248787;23;20063;-78
2023/12/04 11:54:23;;;;;;;8.68;5.95;;;3.00;72.20;;;;;;6247149;23;20055;-78
2023/12/04 11:57:07;;;;;;;10.00;6.10;;;3.10;72.40;;;;;;6246964;23;20016;-78
2023/12/04 11:59:38;;;;;;;10.05;5.88;;;3.10;71.80;;;;;;6247231;23;20040;-78
2023/12/04 12:02:07;;;;;;;8.82;5.82;;;3.10;71.70;;;;;;6247155;23;20012;-78
2023/12/04 12:04:33;;;;;;;9.05;5.25;;;3.20;71.40;;;;;;6246988;23;20020;-78
2023/12/04 12:07:02;;;;;;;7.87;5.83;;;3.20;71.30;;;;;;6195004;23;20018;-78
2023/12/04 12:09:28;;;;;;;7.60;5.13;;;3.20;71.10;;;;;;6219579;23;20043;-78
2023/12/04 12:11:54;;;;;;;8.60;5.90;;;3.20;70.80;;;;;;6219999;23;20485;-78
2023/12/04 12:14:22;;;;;;;8.75;6.18;;;3.20;71.10;;;;;;6220172;23;20108;-78
2023/12/04 12:16:48;;;;;;;10.32;5.38;;;3.20;71.30;;;;;;6220174;23;20016;-78
2023/12/04 12:19:13;;;;;;;7.75;5.80;;;3.30;71.30;;;;;;6246788;23;20059;-78
2023/12/04 12:21:40;;;;;;;9.20;5.97;;;3.30;71.00;;;;;;6246812;23;20016;-78
2023/12/04 12:24:06;;;;;;;8.05;5.63;;;3.30;71.00;;;;;;6246279;23;20020;-78
2023/12/04 12:26:32;;;;;;;9.50;5.80;;;3.30;70.90;;;;;;6246899;23;20015;-78
2023/12/04 12:28:58;;;;;;;9.38;6.30;;;3.30;71.00;;;;;;6246768;23;20087;-78
2023/12/04 12:31:24;;;;;;;10.45;6.35;;;3.30;71.10;;;;;;6246301;23;20102;-78
2023/12/04 12:33:49;;;;;;;11.30;6.22;;;3.30;71.20;;;;;;6246903;23;20015;-78
2023/12/04 12:36:17;;;;;;;10.75;6.50;;;3.30;71.00;;;;;;6246939;23;20012;-78
2023/12/04 12:38:49;;;;;;;9.07;6.05;;;3.30;71.10;;;;;;6219878;23;20044;-78
2023/12/04 12:41:16;;;;;;;8.13;5.78;;;3.30;71.10;;;;;;6247075;23;20038;-78